Time;durP1;ratioP1;P1;durP2;ratioP2;P2;SDS_P1;SDS_P2;PMS_P1;PMS_P2;Temp;Humidity;BMP_temperature;BMP_pressure;BME280_temperature;BME280_humidity;BME280_pressure;Samples;Min_cycle;Max_cycle;Signal;HPM_P1;HPM_P2
2023/08/27 00:00:21;;;;;;;15.82;12.00;;;;;;;22.72;94.67;100007.25;5129586;27;20476;-71
2023/08/27 00:02:47;;;;;;;23.60;11.40;;;;;;;22.77;94.38;99999.06;5139004;27;20037;-72
2023/08/27 00:05:13;;;;;;;16.67;11.50;;;;;;;22.69;94.23;99984.50;5127864;27;20039;-71
2023/08/27 00:07:38;;;;;;;18.30;12.05;;;;;;;22.75;94.30;99989.72;5138855;27;20062;-71
2023/08/27 00:10:04;;;;;;;14.30;10.88;;;;;;;22.70;94.10;99988.78;5124093;27;20111;-70
2023/08/27 00:12:30;;;;;;;19.85;11.35;;;;;;;22.79;93.98;99993.34;5142540;27;20659;-71
2023/08/27 00:14:55;;;;;;;19.20;11.52;;;;;;;22.71;93.91;99987.66;5126551;27;20021;-71
2023/08/27 00:17:21;;;;;;;20.67;11.75;;;;;;;22.77;94.01;99992.88;5137710;27;20433;-70
2023/08/27 00:19:47;;;;;;;16.25;11.82;;;;;;;22.72;94.44;99986.59;5135363;27;20023;-69
2023/08/27 00:22:12;;;;;;;18.65;11.10;;;;;;;22.64;94.91;99981.19;5139285;27;20030;-71
2023/08/27 00:24:38;;;;;;;18.60;11.85;;;;;;;22.59;94.66;99976.78;5136611;27;20033;-71
2023/08/27 00:27:05;;;;;;;19.58;11.82;;;;;;;22.55;95.29;99978.50;5138616;27;20080;-71
2023/08/27 00:29:31;;;;;;;16.45;10.88;;;;;;;22.56;94.91;99985.47;5136379;27;20035;-69
2023/08/27 00:31:56;;;;;;;17.35;11.80;;;;;;;22.51;95.09;99980.25;5142002;27;20023;-71
2023/08/27 00:34:30;;;;;;;16.88;12.18;;;;;;;22.53;94.78;99983.44;5142342;27;20735;-69
2023/08/27 00:36:55;;;;;;;19.23;11.68;;;;;;;22.53;94.74;99988.78;5140387;27;20480;-72
2023/08/27 00:39:20;;;;;;;20.55;11.65;;;;;;;22.56;94.36;99995.41;5139010;27;20030;-72
2023/08/27 00:41:46;;;;;;;17.85;11.18;;;;;;;22.53;93.75;99991.47;5139983;27;20094;-72
2023/08/27 00:44:11;;;;;;;22.75;12.75;;;;;;;22.48;94.08;99989.72;5136894;27;20030;-73
2023/08/27 00:46:36;;;;;;;24.73;11.80;;;;;;;22.40;94.04;99974.41;5143407;27;20020;-72
2023/08/27 00:49:02;;;;;;;19.17;10.90;;;;;;;22.40;94.15;99969.03;5140865;27;20031;-72
2023/08/27 00:51:29;;;;;;;17.85;11.60;;;;;;;22.27;94.49;99951.22;5141503;27;20066;-72
2023/08/27 00:53:54;;;;;;;16.10;11.60;;;;;;;22.35;94.40;99976.47;5137380;27;20031;-70
2023/08/27 00:56:20;;;;;;;17.00;11.45;;;;;;;22.27;94.29;99959.25;5138036;27;20022;-71
2023/08/27 00:58:45;;;;;;;17.95;11.68;;;;;;;22.30;94.41;99967.44;5139016;27;20080;-72
2023/08/27 01:01:13;;;;;;;15.20;11.02;;;;;;;22.17;95.44;99954.94;5121966;27;20019;-71
2023/08/27 01:03:39;;;;;;;14.32;10.98;;;;;;;22.19;95.49;99959.97;5121691;27;20047;-72
2023/08/27 01:06:04;;;;;;;18.65;11.90;;;;;;;22.11;95.50;99956.19;5137637;27;20015;-72
2023/08/27 01:08:58;;;;;;;17.95;11.00;;;;;;;22.25;94.87;99972.19;5120236;27;20050;-72
2023/08/27 01:11:52;;;;;;;17.20;11.10;;;;;;;22.24;94.68;99975.94;5138658;27;20041;-72
2023/08/27 01:14:19;;;;;;;16.77;10.98;;;;;;;22.12;94.90;99954.28;5119894;27;20335;-72
2023/08/27 01:16:46;;;;;;;19.67;11.57;;;;;;;22.19;95.15;99960.78;5133876;27;20652;-72
2023/08/27 01:19:14;;;;;;;18.83;11.43;;;;;;;22.07;95.44;99952.53;5126788;27;20536;-72
2023/08/27 01:21:41;;;;;;;17.58;11.50;;;;;;;22.01;96.29;99945.78;5136900;27;20072;-71
2023/08/27 01:24:06;;;;;;;17.35;11.63;;;;;;;21.94;96.70;99961.53;5139389;27;20026;-70
2023/08/27 01:26:38;;;;;;;18.48;11.77;;;;;;;21.98;96.78;99957.91;5140498;27;20561;-72
2023/08/27 01:29:23;;;;;;;21.30;12.25;;;;;;;21.88;97.09;99956.31;5139064;27;20023;-72
2023/08/27 01:31:59;;;;;;;15.20;11.18;;;;;;;21.86;97.17;99955.81;5137398;27;20042;-72
2023/08/27 01:34:25;;;;;;;14.82;11.52;;;;;;;21.90;96.75;99958.66;5133141;27;20051;-72
2023/08/27 01:36:51;;;;;;;14.25;10.70;;;;;;;21.94;96.55;99959.63;5141031;27;20399;-72
2023/08/27 01:39:17;;;;;;;20.10;11.40;;;;;;;21.94;96.69;99961.53;5135656;27;20693;-72
2023/08/27 01:41:42;;;;;;;16.25;11.30;;;;;;;21.88;96.41;99952.81;5120109;27;20119;-71
2023/08/27 01:44:07;;;;;;;19.52;11.20;;;;;;;21.92;96.11;99956.47;5140488;27;20365;-71
2023/08/27 01:46:33;;;;;;;16.50;10.57;;;;;;;21.88;96.49;99963.53;5135363;27;20762;-72
2023/08/27 01:48:58;;;;;;;15.50;11.63;;;;;;;21.87;96.52;99960.06;5125326;27;20032;-72
2023/08/27 01:51:24;;;;;;;19.25;11.45;;;;;;;21.83;96.85;99961.78;5118151;27;20106;-71
2023/08/27 01:53:50;;;;;;;17.95;10.98;;;;;;;21.79;97.14;99958.16;5136615;27;20019;-73
2023/08/27 01:56:15;;;;;;;16.00;11.55;;;;;;;21.72;97.17;99955.16;5135995;27;20030;-71
2023/08/27 01:58:40;;;;;;;15.10;10.70;;;;;;;21.76;97.02;99956.09;5140477;27;20030;-71
2023/08/27 02:01:06;;;;;;;15.07;10.93;;;;;;;21.80;96.82;99956.28;5136010;27;20031;-71
2023/08/27 02:03:32;;;;;;;17.25;11.40;;;;;;;21.76;96.92;99958.78;5136434;27;20104;-69
2023/08/27 02:05:58;;;;;;;13.63;11.00;;;;;;;21.79;96.50;99955.50;5135750;27;20054;-70
2023/08/27 02:08:24;;;;;;;17.00;11.10;;;;;;;21.73;96.13;99947.91;5126538;27;20035;-70
2023/08/27 02:10:49;;;;;;;17.00;10.65;;;;;;;21.78;96.25;99959.25;5136080;27;20392;-71
2023/08/27 02:13:15;;;;;;;16.95;10.77;;;;;;;21.73;95.70;99951.34;5136130;27;20041;-70
2023/08/27 02:15:42;;;;;;;18.95;10.55;;;;;;;21.72;95.45;99955.16;5139524;27;20799;-70
2023/08/27 02:18:08;;;;;;;17.23;11.20;;;;;;;21.74;95.40;99962.84;5140169;27;20030;-71
2023/08/27 02:20:33;;;;;;;17.50;11.43;;;;;;;21.66;95.60;99953.69;5138742;27;20828;-71
2023/08/27 02:22:59;;;;;;;15.15;11.40;;;;;;;21.66;95.31;99951.00;5139435;27;20495;-71
2023/08/27 02:25:24;;;;;;;15.88;10.68;;;;;;;21.66;95.34;99959.06;5137984;27;20468;-70
2023/08/27 02:27:49;;;;;;;17.52;10.70;;;;;;;21.57;95.65;99948.31;5138437;27;20110;-71
2023/08/27 02:30:15;;;;;;;17.48;11.00;;;;;;;21.53;96.51;99950.03;5137812;27;20054;-71
2023/08/27 02:32:41;;;;;;;17.52;10.70;;;;;;;21.43;97.65;99947.63;5138553;27;20031;-71
2023/08/27 02:35:07;;;;;;;18.05;11.43;;;;;;;21.40;97.87;99942.88;5138122;27;20449;-71
2023/08/27 02:37:32;;;;;;;16.63;11.55;;;;;;;21.55;97.38;99965.78;5138179;27;20461;-70
2023/08/27 02:39:57;;;;;;;19.80;11.55;;;;;;;21.48;96.91;99955.53;5134562;27;20078;-70
2023/08/27 02:42:23;;;;;;;20.77;10.63;;;;;;;21.58;96.28;99962.50;5138166;27;20396;-70
2023/08/27 02:44:48;;;;;;;16.02;11.02;;;;;;;21.56;95.81;99965.47;5136934;27;20019;-70
2023/08/27 02:47:13;;;;;;;15.77;10.93;;;;;;;21.44;95.91;99949.19;5120545;27;20189;-70
2023/08/27 02:49:39;;;;;;;17.33;10.63;;;;;;;21.52;95.73;99958.38;5135884;27;20484;-71
2023/08/27 02:52:04;;;;;;;14.80;10.93;;;;;;;21.26;96.60;99934.88;5134881;27;20060;-71
2023/08/27 02:54:30;;;;;;;16.02;11.27;;;;;;;21.26;97.94;99953.63;5136452;27;20442;-70
2023/08/27 02:56:55;;;;;;;14.30;10.70;;;;;;;21.14;98.46;99946.19;5136195;27;20026;-70
2023/08/27 02:59:21;;;;;;;17.65;11.07;;;;;;;21.10;98.65;99939.06;5135679;27;20030;-71
2023/08/27 03:01:46;;;;;;;15.25;10.13;;;;;;;21.10;99.07;99942.53;5138809;27;20110;-71
2023/08/27 03:04:11;;;;;;;19.13;11.05;;;;;;;21.11;99.07;99948.69;5137099;27;20039;-71
2023/08/27 03:06:37;;;;;;;17.15;10.95;;;;;;;21.10;98.84;99944.44;5135901;27;20035;-71
2023/08/27 03:09:02;;;;;;;16.00;10.30;;;;;;;21.13;98.60;99952.63;5140585;27;20555;-71
2023/08/27 03:11:28;;;;;;;14.38;10.55;;;;;;;21.13;98.17;99960.66;5139128;27;20636;-72
2023/08/27 03:13:53;;;;;;;18.00;10.68;;;;;;;21.19;97.93;99958.63;5141583;27;20031;-72
2023/08/27 03:16:18;;;;;;;17.08;10.82;;;;;;;21.21;97.58;99951.09;5139894;27;20023;-72
2023/08/27 03:18:44;;;;;;;17.85;10.70;;;;;;;21.23;97.14;99954.25;5139659;27;20126;-72
2023/08/27 03:21:09;;;;;;;17.40;11.15;;;;;;;21.19;97.21;99958.63;5137955;27;20031;-72
2023/08/27 03:23:35;;;;;;;13.60;10.43;;;;;;;21.14;97.63;99950.75;5140627;27;20030;-73
2023/08/27 03:26:01;;;;;;;16.63;11.35;;;;;;;21.02;98.16;99954.78;5122598;27;20509;-73
2023/08/27 03:28:27;;;;;;;12.75;10.85;;;;;;;20.85;98.27;99925.22;5141881;27;20027;-72
2023/08/27 03:30:52;;;;;;;16.20;11.02;;;;;;;21.01;98.10;99952.41;5138315;27;20058;-72
2023/08/27 03:33:18;;;;;;;15.25;11.23;;;;;;;21.06;98.11;99959.53;5142548;27;20585;-72
2023/08/27 03:35:54;;;;;;;17.17;11.13;;;;;;;20.86;97.94;99929.47;5141597;27;20031;-69
2023/08/27 03:38:20;;;;;;;18.55;11.63;;;;;;;21.00;98.00;99951.63;5140805;27;20034;-71
2023/08/27 03:40:49;;;;;;;15.38;11.63;;;;;;;21.00;98.01;99956.19;5143661;27;20094;-72
2023/08/27 03:43:14;;;;;;;20.45;11.15;;;;;;;20.98;97.92;99959.16;5119613;27;20441;-71
2023/08/27 03:45:39;;;;;;;13.45;10.68;;;;;;;20.99;98.06;99967.97;5137138;27;20146;-72
2023/08/27 03:48:05;;;;;;;19.02;10.90;;;;;;;21.00;97.73;99970.34;5139838;27;20502;-72
2023/08/27 03:50:31;;;;;;;20.00;10.95;;;;;;;20.93;97.82;99959.28;5141355;27;20376;-72
2023/08/27 03:52:57;;;;;;;21.55;10.88;;;;;;;20.99;97.62;99963.41;5128763;27;20018;-72
2023/08/27 03:55:22;;;;;;;21.58;11.02;;;;;;;20.89;97.94;99954.84;5140863;27;20031;-71
2023/08/27 03:57:49;;;;;;;15.48;10.45;;;;;;;20.91;98.17;99963.38;5137753;27;20457;-71
2023/08/27 04:00:14;;;;;;;17.60;11.35;;;;;;;20.87;98.41;99962.38;5129851;27;20034;-72
2023/08/27 04:02:40;;;;;;;15.75;10.45;;;;;;;20.79;98.91;99967.38;5139263;27;20023;-72
2023/08/27 04:05:06;;;;;;;13.52;10.32;;;;;;;20.71;98.69;99951.25;5138684;27;20051;-73
2023/08/27 04:07:32;;;;;;;15.45;10.55;;;;;;;20.72;98.60;99961.66;5130137;27;20029;-73
2023/08/27 04:09:57;;;;;;;15.00;10.30;;;;;;;20.78;98.82;99978.38;5121199;27;20023;-73
2023/08/27 04:12:22;;;;;;;15.55;10.45;;;;;;;20.75;98.43;99968.28;5139358;27;20023;-72
2023/08/27 04:14:48;;;;;;;20.88;11.18;;;;;;;20.79;98.32;99974.63;5139237;27;20057;-73
2023/08/27 04:17:13;;;;;;;15.30;10.55;;;;;;;20.82;98.08;99982.03;5136322;27;20026;-72
2023/08/27 04:19:38;;;;;;;13.35;10.25;;;;;;;20.86;97.97;99985.69;5137355;27;20114;-69
2023/08/27 04:22:04;;;;;;;15.02;10.73;;;;;;;20.79;97.89;99969.25;5121750;27;20031;-71
2023/08/27 04:24:29;;;;;;;16.60;10.55;;;;;;;20.81;98.31;99983.13;5138636;27;20027;-72
2023/08/27 04:26:55;;;;;;;15.23;10.18;;;;;;;20.80;98.30;99978.84;5140310;27;20119;-72
2023/08/27 04:29:21;;;;;;;18.08;10.63;;;;;;;20.90;97.89;99985.84;5140296;27;20026;-72
2023/08/27 04:31:46;;;;;;;14.18;9.98;;;;;;;20.90;97.76;99994.69;5140291;27;20034;-72
2023/08/27 04:34:12;;;;;;;17.02;10.73;;;;;;;20.95;97.46;100002.59;5141372;27;20083;-72
2023/08/27 04:36:37;;;;;;;16.67;10.23;;;;;;;21.01;97.36;99997.91;5137281;27;20019;-72
2023/08/27 04:39:02;;;;;;;14.40;9.95;;;;;;;21.02;97.06;99994.94;5138287;27;20035;-72
2023/08/27 04:41:28;;;;;;;19.90;10.90;;;;;;;21.12;96.90;100009.16;5138485;27;20042;-71
2023/08/27 04:43:53;;;;;;;14.55;9.70;;;;;;;21.10;96.39;100001.44;5128563;27;20018;-69
2023/08/27 04:46:19;;;;;;;13.85;9.93;;;;;;;21.20;96.37;100013.78;5142359;27;20611;-71
2023/08/27 04:48:44;;;;;;;15.20;10.55;;;;;;;21.20;96.16;100008.44;5138458;27;20538;-72
2023/08/27 04:51:10;;;;;;;13.57;10.30;;;;;;;21.18;95.73;100007.94;5140335;27;20030;-72
2023/08/27 04:53:35;;;;;;;14.88;10.05;;;;;;;21.25;95.38;100016.34;5138629;27;20027;-73
2023/08/27 04:56:00;;;;;;;20.67;10.05;;;;;;;21.34;94.87;100022.53;5137823;27;20029;-73
2023/08/27 04:58:26;;;;;;;18.45;9.88;;;;;;;21.31;94.68;100017.81;5139707;27;20031;-69
2023/08/27 05:00:55;;;;;;;14.75;9.52;;;;;;;21.34;94.32;100014.50;5139004;27;20039;-73
2023/08/27 05:03:20;;;;;;;;;;;;;;;21.48;94.14;100029.72;5139456;27;20058;-70
2023/08/27 05:05:45;;;;;;;12.00;10.13;;;;;;;21.52;94.02;100028.03;5142458;27;19916;-73
2023/08/27 05:08:11;;;;;;;14.70;10.15;;;;;;;21.58;94.04;100027.59;5137869;27;20270;-71
2023/08/27 05:10:36;;;;;;;12.30;8.85;;;;;;;21.64;94.03;100026.38;5137901;27;20035;-71
2023/08/27 05:13:02;;;;;;;17.65;10.05;;;;;;;21.71;94.24;100014.41;5136835;27;20114;-71
2023/08/27 05:15:28;;;;;;;14.80;9.98;;;;;;;21.81;93.21;100017.63;5139909;27;20031;-71
2023/08/27 05:17:53;;;;;;;16.10;10.68;;;;;;;21.91;93.28;100015.75;5136560;27;20130;-71
2023/08/27 05:20:18;;;;;;;15.80;10.85;;;;;;;21.98;92.37;100013.41;5140688;27;20023;-71
2023/08/27 05:22:44;;;;;;;11.75;9.52;;;;;;;22.35;92.00;100055.03;5139111;27;20038;-71
2023/08/27 05:25:09;;;;;;;13.90;9.30;;;;;;;22.16;91.28;100020.41;5126773;27;20575;-72
2023/08/27 05:27:35;;;;;;;12.93;8.95;;;;;;;22.19;90.48;100014.41;5134633;27;20259;-71
2023/08/27 05:30:00;;;;;;;14.88;9.02;;;;;;;22.19;89.75;100001.00;5136725;27;20026;-70
2023/08/27 05:32:26;;;;;;;12.57;9.15;;;;;;;22.33;89.18;100017.00;5139119;27;20490;-70
2023/08/27 05:34:53;;;;;;;18.95;8.93;;;;;;;22.37;89.27;100009.13;5137023;27;20019;-68
2023/08/27 05:37:19;;;;;;;12.85;8.93;;;;;;;22.47;89.27;100017.66;5139436;27;20663;-70
2023/08/27 05:39:44;;;;;;;12.63;8.90;;;;;;;22.45;88.45;100013.69;5121157;27;20134;-69
2023/08/27 05:42:10;;;;;;;14.77;8.43;;;;;;;22.59;88.44;100029.66;5137655;27;20393;-69
2023/08/27 05:44:35;;;;;;;15.88;8.65;;;;;;;22.64;88.61;100022.25;5122451;27;20021;-71
2023/08/27 05:47:01;;;;;;;14.65;9.35;;;;;;;22.77;88.46;100031.28;5137148;27;20027;-71
2023/08/27 05:49:26;;;;;;;14.07;8.70;;;;;;;22.84;88.60;100022.72;5142271;27;20019;-71
2023/08/27 05:51:51;;;;;;;17.30;9.25;;;;;;;22.92;88.65;100021.94;5139983;27;20022;-70
2023/08/27 05:54:17;;;;;;;13.35;9.25;;;;;;;23.00;87.36;100012.31;5136896;27;20031;-70
2023/08/27 05:56:42;;;;;;;14.27;9.35;;;;;;;23.03;86.55;100012.47;5142460;27;20075;-70
2023/08/27 05:59:09;;;;;;;11.90;8.98;;;;;;;23.10;87.33;100015.47;5140902;27;20035;-71
2023/08/27 06:01:34;;;;;;;14.52;8.85;;;;;;;23.19;86.73;100030.78;5140862;27;20114;-70
2023/08/27 06:03:59;;;;;;;15.68;8.82;;;;;;;23.28;85.58;100028.88;5136908;27;20146;-70
2023/08/27 06:06:25;;;;;;;14.82;8.88;;;;;;;23.33;86.14;100020.66;5135590;27;20560;-68
2023/08/27 06:08:50;;;;;;;19.67;9.25;;;;;;;23.45;85.65;100031.53;5137295;27;20038;-69
2023/08/27 06:11:15;;;;;;;16.13;8.93;;;;;;;23.53;84.36;100017.25;5137115;27;20027;-72
2023/08/27 06:13:41;;;;;;;14.88;9.13;;;;;;;23.65;84.09;100024.66;5121443;27;20063;-67
2023/08/27 06:16:06;;;;;;;14.55;8.93;;;;;;;23.73;85.33;100018.50;5135475;27;20034;-67
2023/08/27 06:18:32;;;;;;;13.98;9.15;;;;;;;23.74;84.35;100012.00;5139259;27;20034;-67
2023/08/27 06:20:57;;;;;;;22.15;9.35;;;;;;;23.86;83.81;100022.09;5134605;27;20383;-72
2023/08/27 06:23:22;;;;;;;14.00;9.23;;;;;;;23.99;83.61;100018.41;5135063;27;20046;-72
2023/08/27 06:25:48;;;;;;;12.25;8.82;;;;;;;24.03;82.06;100017.75;5123095;27;20023;-72
2023/08/27 06:28:15;;;;;;;13.88;8.93;;;;;;;24.15;82.18;100013.22;5119645;27;20031;-73
2023/08/27 06:30:41;;;;;;;12.93;9.27;;;;;;;24.33;82.02;100018.53;5124128;27;20035;-71
2023/08/27 06:33:09;;;;;;;12.85;8.55;;;;;;;24.49;80.81;100024.13;5137142;27;20749;-72
2023/08/27 06:35:35;;;;;;;14.13;8.68;;;;;;;24.57;81.04;100034.84;5137323;27;20035;-72
2023/08/27 06:38:00;;;;;;;10.10;8.27;;;;;;;24.64;80.06;100028.94;5140099;27;20027;-72
2023/08/27 06:40:26;;;;;;;15.48;9.35;;;;;;;24.78;79.70;100039.44;5143123;27;20033;-71
2023/08/27 06:42:51;;;;;;;16.08;9.35;;;;;;;24.88;79.25;100049.00;5139806;27;20417;-72
2023/08/27 06:45:18;;;;;;;13.55;8.55;;;;;;;24.92;77.54;100055.31;5141966;27;20026;-72
2023/08/27 06:47:43;;;;;;;14.60;8.60;;;;;;;25.01;76.43;100050.66;5140567;27;20068;-75
2023/08/27 06:50:09;;;;;;;15.05;9.45;;;;;;;24.99;76.72;100045.59;5131624;27;20023;-73
2023/08/27 06:52:34;;;;;;;14.43;8.32;;;;;;;25.15;75.49;100055.78;5144224;27;20038;-74
2023/08/27 06:55:00;;;;;;;17.42;9.23;;;;;;;25.19;74.38;100046.72;5138883;27;20076;-72
2023/08/27 06:57:26;;;;;;;11.27;9.38;;;;;;;25.32;74.16;100038.69;5141376;27;20041;-74
2023/08/27 06:59:52;;;;;;;11.30;9.40;;;;;;;25.49;73.80;100045.78;5143137;27;20027;-73
2023/08/27 07:02:17;;;;;;;15.32;9.25;;;;;;;25.58;74.11;100041.09;5145447;27;20038;-74
2023/08/27 07:04:43;;;;;;;14.63;9.27;;;;;;;25.72;73.73;100048.88;5141432;27;20063;-73
2023/08/27 07:07:08;;;;;;;17.20;9.55;;;;;;;25.82;74.08;100051.13;5120286;27;20034;-73
2023/08/27 07:09:34;;;;;;;13.43;8.52;;;;;;;25.95;72.45;100055.41;5139286;27;20476;-74
2023/08/27 07:11:59;;;;;;;18.38;9.88;;;;;;;26.02;71.51;100046.78;5140421;27;20023;-74
2023/08/27 07:14:25;;;;;;;14.23;9.38;;;;;;;26.10;71.81;100037.78;5139081;27;20019;-75
2023/08/27 07:16:51;;;;;;;15.52;9.45;;;;;;;26.21;72.22;100048.91;5122887;27;20405;-71
2023/08/27 07:19:16;;;;;;;14.15;8.85;;;;;;;26.35;72.02;100051.25;5141371;27;20035;-72
2023/08/27 07:21:41;;;;;;;14.93;8.52;;;;;;;26.45;69.42;100042.69;5139113;27;20113;-70
2023/08/27 07:24:07;;;;;;;13.93;8.50;;;;;;;26.54;68.70;100039.91;5123665;27;20033;-72
2023/08/27 07:26:32;;;;;;;12.55;8.63;;;;;;;26.69;67.92;100039.16;5141473;27;20480;-72
2023/08/27 07:28:58;;;;;;;17.50;8.95;;;;;;;26.77;66.83;100043.66;5138967;27;20041;-70
2023/08/27 07:31:24;;;;;;;13.30;9.30;;;;;;;26.77;68.74;100043.66;5138429;27;20027;-70
2023/08/27 07:33:49;;;;;;;11.85;8.00;;;;;;;26.80;68.51;100040.25;5138115;27;20476;-72
2023/08/27 07:36:14;;;;;;;15.07;9.25;;;;;;;27.01;67.69;100036.56;5124165;27;20035;-69
2023/08/27 07:38:41;;;;;;;13.50;8.63;;;;;;;27.10;67.07;100039.91;5139901;27;20023;-71
2023/08/27 07:41:08;;;;;;;15.77;9.07;;;;;;;27.24;66.95;100036.84;5131225;27;20076;-73
2023/08/27 07:43:33;;;;;;;13.30;9.25;;;;;;;27.30;66.13;100038.16;5131351;27;20023;-72
2023/08/27 07:45:59;;;;;;;16.30;8.85;;;;;;;27.29;66.30;100026.53;5142714;27;20110;-72
2023/08/27 07:48:25;;;;;;;15.45;9.30;;;;;;;27.38;65.08;100023.69;5139222;27;20038;-73
2023/08/27 07:50:50;;;;;;;11.90;8.65;;;;;;;27.56;65.75;100029.56;5120839;27;20031;-70
2023/08/27 07:53:16;;;;;;;17.75;8.88;;;;;;;27.67;64.33;100017.06;5135118;27;20035;-73
2023/08/27 08:15:05;;;;;;;17.73;8.35;;;;;;;28.49;62.20;99995.72;5047714;28;20043;-72
2023/08/27 08:20:53;;;;;;;15.75;9.27;;;;;;;28.86;60.97;100008.88;5046914;28;20071;-72
2023/08/27 08:30:06;;;;;;;13.90;8.43;;;;;;;29.37;57.64;100014.06;5047185;28;20048;-72
2023/08/27 08:46:06;;;;;;;11.45;8.57;;;;;;;30.21;54.54;99994.03;5046546;28;20051;-73
2023/08/27 08:51:59;;;;;;;15.98;9.68;;;;;;;30.43;54.91;99983.47;5046755;28;20103;-71
2023/08/27 09:01:16;;;;;;;18.08;8.88;;;;;;;30.93;52.50;99981.34;5045042;28;20093;-71
2023/08/27 09:10:27;;;;;;;15.82;10.02;;;;;;;31.40;51.19;99971.72;5046184;28;20629;-72
2023/08/27 09:12:56;;;;;;;10.75;9.05;;;;;;;31.55;50.01;99972.59;5044504;28;20025;-72
2023/08/27 09:18:43;;;;;;;14.35;8.68;;;;;;;31.69;48.26;99952.88;5043623;28;20505;-73
2023/08/27 09:27:53;;;;;;;12.15;8.70;;;;;;;32.11;48.75;99946.13;5043944;28;20068;-72
2023/08/27 09:30:19;;;;;;;19.70;9.52;;;;;;;32.18;48.25;99943.41;5044304;28;20052;-71
2023/08/27 09:43:31;;;;;;;15.30;8.15;;;;;;;32.63;45.14;99935.81;5047335;28;20032;-73
2023/08/27 09:49:22;;;;;;;12.20;8.13;;;;;;;32.82;45.29;99935.47;5045805;28;20964;-72
2023/08/27 09:55:13;;;;;;;13.82;7.95;;;;;;;33.01;43.56;99911.72;5044021;28;20124;-72
2023/08/27 10:05:14;;;;;;;11.32;7.45;;;;;;;33.40;42.04;99905.47;5016907;28;20410;-73
2023/08/27 10:11:07;;;;;;;10.98;7.20;;;;;;;33.53;41.28;99908.59;4999619;28;20109;-73
2023/08/27 10:16:54;;;;;;;10.02;7.18;;;;;;;33.66;41.95;99893.38;4999326;28;20173;-73
2023/08/27 10:22:42;;;;;;;15.13;7.53;;;;;;;33.83;40.26;99878.91;5001753;28;20231;-73
2023/08/27 10:28:31;;;;;;;11.07;6.90;;;;;;;34.06;39.48;99891.28;4999985;28;20080;-71
2023/08/27 10:37:47;;;;;;;8.55;6.80;;;;;;;34.37;38.58;99897.00;5001508;28;20048;-72
2023/08/27 10:43:35;;;;;;;12.15;6.78;;;;;;;34.45;37.99;99882.13;4994652;28;20553;-72
2023/08/27 10:49:22;;;;;;;13.07;6.90;;;;;;;34.58;37.31;99879.72;4999053;28;20037;-72
2023/08/27 10:55:12;;;;;;;10.63;6.38;;;;;;;34.69;36.16;99872.97;5003475;28;20037;-73
2023/08/27 11:01:04;;;;;;;15.15;5.68;;;;;;;34.79;35.51;99863.16;4998167;28;20056;-71
2023/08/27 11:07:17;;;;;;;9.48;5.35;;;;;;;34.85;33.78;99852.56;5015696;28;20044;-70
2023/08/27 11:09:53;;;;;;;14.68;6.03;;;;;;;34.86;33.44;99854.09;5005101;28;20045;-74
2023/08/27 11:16:17;;;;;;;10.00;5.50;;;;;;;34.93;32.86;99843.09;5005020;28;20048;-72
2023/08/27 11:22:07;;;;;;;10.27;5.32;;;;;;;35.04;33.44;99841.03;5004629;28;20354;-73
2023/08/27 11:27:55;;;;;;;9.73;4.60;;;;;;;35.13;32.44;99832.41;5004522;28;20095;-71
2023/08/27 11:33:42;;;;;;;10.20;4.85;;;;;;;35.24;32.39;99816.63;5006675;28;20045;-72
2023/08/27 11:36:07;;;;;;;9.85;4.88;;;;;;;35.28;31.83;99813.88;5006999;28;20038;-72
2023/08/27 11:38:33;;;;;;;10.45;5.50;;;;;;;35.30;31.58;99820.50;5006570;28;20033;-71
2023/08/27 11:45:07;;;;;;;11.40;5.32;;;;;;;35.38;31.93;99803.97;5008690;28;20132;-71
2023/08/27 11:50:55;;;;;;;12.18;4.57;;;;;;;35.47;31.15;99802.31;5007402;28;20100;-71
2023/08/27 12:00:26;;;;;;;9.80;4.82;;;;;;;35.65;32.59;99796.63;5008823;28;20045;-68
2023/08/27 12:30:06;;;;;;;8.85;4.40;;;;;;;35.84;29.00;99791.69;5050842;28;20048;-71
2023/08/27 12:35:53;;;;;;;10.00;4.70;;;;;;;35.91;29.71;99784.16;5045637;28;20101;-72
2023/08/27 13:09:02;;;;;;;13.40;4.28;;;;;;;36.13;29.26;99770.97;5029760;28;20625;-71
2023/08/27 13:21:33;;;;;;;10.27;5.05;;;;;;;36.03;31.35;99763.63;5007598;28;20041;-70
2023/08/27 13:24:04;;;;;;;13.98;5.47;;;;;;;36.07;31.28;99774.53;5005618;28;20026;-69
2023/08/27 13:33:13;;;;;;;11.40;5.13;;;;;;;35.98;31.21;99764.09;5005074;28;20399;-69
2023/08/27 13:39:00;;;;;;;12.13;5.20;;;;;;;35.98;30.75;99767.59;5008625;28;20076;-69
2023/08/27 13:44:48;;;;;;;10.25;4.50;;;;;;;36.00;30.79;99765.22;5008585;28;20068;-71
2023/08/27 13:53:57;;;;;;;10.80;4.70;;;;;;;35.86;29.82;99748.22;5008533;28;20419;-70
2023/08/27 13:59:44;;;;;;;10.70;4.80;;;;;;;35.83;30.63;99740.84;5007528;28;20466;-68
2023/08/27 14:08:53;;;;;;;8.18;4.82;;;;;;;35.93;30.97;99762.59;5009917;28;20029;-69
2023/08/27 14:14:41;;;;;;;11.32;4.85;;;;;;;35.83;30.57;99757.28;5047660;28;20145;-70
2023/08/27 14:23:51;;;;;;;14.40;4.68;;;;;;;35.86;31.34;99765.44;5047022;28;20036;-69
2023/08/27 14:29:41;;;;;;;11.40;4.35;;;;;;;35.77;30.96;99765.97;5046437;28;20040;-69
2023/08/27 14:39:50;;;;;;;11.75;4.97;;;;;;;35.83;30.55;99762.75;5011169;28;20069;-69
2023/08/27 14:52:42;;;;;;;11.82;5.20;;;;;;;35.57;32.02;99767.75;4999089;28;20155;-68
2023/08/27 14:58:28;;;;;;;11.38;4.95;;;;;;;35.42;30.76;99755.44;5003085;28;20109;-69
2023/08/27 15:07:43;;;;;;;8.15;3.97;;;;;;;35.35;30.57;99748.84;5050099;28;20047;-68
2023/08/27 15:10:34;;;;;;;9.45;4.47;;;;;;;35.35;30.37;99756.31;5034129;28;20048;-68
2023/08/27 15:16:21;;;;;;;11.48;4.20;;;;;;;35.22;30.63;99755.28;5047028;28;20032;-71
2023/08/27 15:22:45;;;;;;;7.40;4.28;;;;;;;35.07;30.61;99752.66;5047573;28;20484;-69
2023/08/27 15:28:32;;;;;;;10.93;4.75;;;;;;;34.87;32.49;99746.25;5046378;28;20456;-70
2023/08/27 15:34:19;;;;;;;7.05;4.78;;;;;;;34.76;32.33;99746.34;5047094;28;20055;-70
2023/08/27 15:43:43;;;;;;;9.85;4.47;;;;;;;34.50;32.71;99740.31;5049722;28;20121;-71
2023/08/27 15:52:52;;;;;;;8.50;5.15;;;;;;;34.40;32.44;99738.44;5049364;28;20169;-71
2023/08/27 15:58:39;;;;;;;14.75;5.07;;;;;;;34.41;33.29;99752.88;5041831;28;20043;-72
2023/08/27 16:07:48;;;;;;;10.40;5.38;;;;;;;34.22;33.69;99752.25;5043748;28;20112;-71
2023/08/27 16:10:57;;;;;;;17.50;6.05;;;;;;;34.25;33.93;99750.66;5045875;28;20970;-71
2023/08/27 16:17:22;;;;;;;8.38;5.35;;;;;;;34.15;34.86;99762.47;5005607;28;20565;-69
2023/08/27 16:19:47;;;;;;;10.40;5.30;;;;;;;34.05;35.12;99755.84;5006549;28;20547;-70
2023/08/27 16:25:34;;;;;;;11.10;5.43;;;;;;;33.89;35.90;99745.41;5007180;28;20286;-71
2023/08/27 16:31:26;;;;;;;11.95;5.40;;;;;;;33.73;35.67;99758.75;5007922;28;20478;-71
2023/08/27 16:37:13;;;;;;;8.73;4.82;;;;;;;33.55;36.38;99754.16;5006521;28;20534;-71
2023/08/27 16:39:38;;;;;;;9.15;4.93;;;;;;;33.54;35.99;99758.03;5006602;28;20042;-71
2023/08/27 16:48:47;;;;;;;10.80;4.90;;;;;;;33.23;36.52;99746.84;5009390;28;20049;-71
2023/08/27 16:54:34;;;;;;;8.27;4.90;;;;;;;33.00;36.98;99741.03;5009257;28;20564;-70
2023/08/27 17:00:22;;;;;;;12.95;5.03;;;;;;;32.87;37.36;99750.81;5005386;28;20107;-69
2023/08/27 17:06:09;;;;;;;10.65;4.93;;;;;;;32.66;37.87;99748.88;5007373;28;20435;-71
2023/08/27 17:16:02;;;;;;;9.55;4.68;;;;;;;32.38;38.63;99756.66;5044423;28;20526;-68
2023/08/27 17:22:28;;;;;;;13.27;5.35;;;;;;;32.17;39.41;99759.34;5043357;28;20031;-68
2023/08/27 17:24:53;;;;;;;9.88;5.32;;;;;;;32.11;39.61;99758.16;5041534;28;20063;-71
2023/08/27 17:30:41;;;;;;;16.17;5.43;;;;;;;31.89;40.44;99741.75;5045361;28;20139;-73
2023/08/27 17:36:28;;;;;;;12.73;5.75;;;;;;;31.66;41.28;99733.94;5044926;28;20160;-74
2023/08/27 17:38:54;;;;;;;13.10;5.28;;;;;;;31.53;41.41;99689.94;5027384;28;20119;-75
2023/08/27 17:41:24;;;;;;;12.45;5.47;;;;;;;31.47;41.77;99712.47;5044462;28;20132;-76
2023/08/27 17:43:49;;;;;;;9.82;5.43;;;;;;;31.38;42.19;99720.97;5044905;28;20111;-73
2023/08/27 17:46:15;;;;;;;13.00;5.40;;;;;;;31.29;42.50;99712.38;5044422;28;20514;-71